createdAt,value
2017-07-27T00:00:10.568Z,22.6
2017-07-27T00:01:18.659Z,22.6
2017-07-27T00:02:26.746Z,22.6
2017-07-27T00:03:34.833Z,22.6
2017-07-27T00:04:42.923Z,22.7
2017-07-27T00:05:51.012Z,22.6
2017-07-27T00:06:59.101Z,22.6
2017-07-27T00:08:07.189Z,22.6
2017-07-27T00:09:15.278Z,22.6
2017-07-27T00:10:23.367Z,22.7
2017-07-27T00:11:31.458Z,22.7
2017-07-27T00:12:39.544Z,22.6
2017-07-27T00:13:47.634Z,22.6
2017-07-27T00:14:55.721Z,22.7
2017-07-27T00:16:03.811Z,22.7
2017-07-27T00:17:11.901Z,22.6
2017-07-27T00:18:19.989Z,22.7
2017-07-27T00:19:28.076Z,22.7
2017-07-27T00:20:36.166Z,22.6
2017-07-27T00:21:44.255Z,22.6
2017-07-27T00:22:52.342Z,22.6
2017-07-27T00:24:00.434Z,22.6
2017-07-27T00:25:08.519Z,22.7
2017-07-27T00:26:16.609Z,22.6
2017-07-27T00:27:24.699Z,22.6
2017-07-27T00:28:32.789Z,22.6
2017-07-27T00:29:40.877Z,22.6
2017-07-27T00:30:48.964Z,22.6
2017-07-27T00:31:57.055Z,22.6
2017-07-27T00:33:05.144Z,22.6
2017-07-27T00:34:13.230Z,22.6
2017-07-27T00:35:21.347Z,22.7
2017-07-27T00:36:29.410Z,22.7
2017-07-27T00:37:37.499Z,22.6
2017-07-27T00:38:45.587Z,22.7
2017-07-27T00:39:53.680Z,22.6
2017-07-27T00:41:01.765Z,22.6
2017-07-27T00:42:09.854Z,22.7
2017-07-27T00:43:17.941Z,22.6
2017-07-27T00:44:26.035Z,22.6
2017-07-27T00:45:34.124Z,22.6
2017-07-27T00:46:42.239Z,22.7
2017-07-27T00:47:50.303Z,22.7
2017-07-27T00:48:58.389Z,22.7
2017-07-27T00:50:06.486Z,22.6
2017-07-27T00:51:14.567Z,22.6
2017-07-27T00:52:22.656Z,22.7
2017-07-27T00:53:30.746Z,22.6
2017-07-27T00:54:38.833Z,22.6
2017-07-27T00:55:46.924Z,22.6
2017-07-27T00:56:55.010Z,22.6
2017-07-27T00:58:03.100Z,22.6
2017-07-27T00:59:11.189Z,22.6
2017-07-27T01:00:19.288Z,22.6
2017-07-27T01:01:27.377Z,22.7
2017-07-27T01:02:35.465Z,22.6
2017-07-27T01:03:43.562Z,22.6
2017-07-27T01:04:51.642Z,22.7
2017-07-27T01:05:59.732Z,22.6
2017-07-27T01:07:07.820Z,22.7
2017-07-27T01:08:15.910Z,22.6
2017-07-27T01:09:23.998Z,22.6
2017-07-27T01:10:32.085Z,22.6
2017-07-27T01:11:40.176Z,22.6
2017-07-27T01:12:48.264Z,22.7
2017-07-27T01:13:56.354Z,22.6
2017-07-27T01:15:04.442Z,22.6
2017-07-27T01:16:12.538Z,22.7
2017-07-27T01:17:20.617Z,22.6
2017-07-27T01:18:28.705Z,22.6
2017-07-27T01:19:36.794Z,22.6
2017-07-27T01:20:44.885Z,22.6
2017-07-27T01:21:52.972Z,22.6
2017-07-27T01:23:01.062Z,22.7
2017-07-27T01:24:09.148Z,22.6
2017-07-27T01:25:17.239Z,22.6
2017-07-27T01:26:25.325Z,22.6
2017-07-27T01:27:33.415Z,22.6
2017-07-27T01:28:41.501Z,22.6
2017-07-27T01:29:49.593Z,22.6
2017-07-27T01:30:57.678Z,22.6
2017-07-27T01:32:05.790Z,22.6
2017-07-27T01:33:13.857Z,22.6
2017-07-27T01:34:21.944Z,22.6
2017-07-27T01:35:30.033Z,22.6
2017-07-27T01:36:38.118Z,22.6
2017-07-27T01:37:46.210Z,22.6
2017-07-27T01:38:54.299Z,22.6
2017-07-27T01:40:02.388Z,22.6
2017-07-27T01:41:10.478Z,22.6
2017-07-27T01:42:18.563Z,22.6
2017-07-27T01:43:26.654Z,22.6
2017-07-27T01:44:34.743Z,22.6
2017-07-27T01:45:42.828Z,22.6
2017-07-27T01:46:50.917Z,22.6
2017-07-27T01:47:59.012Z,22.5
2017-07-27T01:49:07.104Z,22.5
2017-07-27T01:50:15.187Z,22.6
2017-07-27T01:51:23.279Z,22.5
2017-07-27T01:52:31.368Z,22.5
2017-07-27T01:53:39.480Z,22.6
2017-07-27T01:54:47.567Z,22.5
2017-07-27T01:55:55.631Z,22.6
2017-07-27T01:57:03.720Z,22.6
2017-07-27T01:58:11.811Z,22.6
2017-07-27T01:59:19.895Z,22.6
2017-07-27T02:00:27.984Z,22.5
2017-07-27T02:01:36.075Z,22.5
2017-07-27T02:02:44.161Z,22.5
2017-07-27T02:03:52.250Z,22.6
2017-07-27T02:05:00.337Z,22.5
2017-07-27T02:06:08.427Z,22.5
2017-07-27T02:07:16.520Z,22.5
2017-07-27T02:08:24.605Z,22.5
2017-07-27T02:09:32.694Z,22.6
2017-07-27T02:10:40.782Z,22.5
2017-07-27T02:11:48.952Z,22.4
2017-07-27T02:12:56.962Z,22.5
2017-07-27T02:14:05.049Z,22.5
2017-07-27T02:15:13.138Z,22.5
2017-07-27T02:16:21.225Z,22.5
2017-07-27T02:17:29.314Z,22.5
2017-07-27T02:18:37.402Z,22.4
2017-07-27T02:19:45.492Z,22.5
2017-07-27T02:20:53.577Z,22.5
2017-07-27T02:22:01.668Z,22.5
2017-07-27T02:23:09.755Z,22.4
2017-07-27T02:24:17.845Z,22.4
2017-07-27T02:25:25.932Z,22.4
2017-07-27T02:26:34.022Z,22.4
2017-07-27T02:27:42.112Z,22.4
2017-07-27T02:28:50.223Z,22.4
2017-07-27T02:29:58.287Z,22.4
2017-07-27T02:31:06.376Z,22.4
2017-07-27T02:32:14.466Z,22.4
2017-07-27T02:33:22.552Z,22.4
2017-07-27T02:34:30.640Z,22.4
2017-07-27T02:35:38.753Z,22.4
2017-07-27T02:36:46.819Z,22.4
2017-07-27T02:37:54.907Z,22.4
2017-07-27T02:39:02.994Z,22.4
2017-07-27T02:40:11.081Z,22.3
2017-07-27T02:41:19.169Z,22.4
2017-07-27T02:42:27.260Z,22.4
2017-07-27T02:43:35.348Z,22.3
2017-07-27T02:44:43.435Z,22.3
2017-07-27T02:45:51.549Z,22.3
2017-07-27T02:46:59.612Z,22.3
2017-07-27T02:48:07.702Z,22.4
2017-07-27T02:49:15.791Z,22.3
2017-07-27T02:50:23.878Z,22.3
2017-07-27T02:51:31.968Z,22.2
2017-07-27T02:52:40.057Z,22.3
2017-07-27T02:53:48.146Z,22.3
2017-07-27T02:54:56.230Z,22.3
2017-07-27T02:56:04.320Z,22.3
2017-07-27T02:57:12.407Z,22.2
2017-07-27T02:58:20.498Z,22.2
2017-07-27T02:59:28.582Z,22.2
2017-07-27T03:00:36.698Z,22.2
2017-07-27T03:01:44.761Z,22.1
2017-07-27T03:02:52.871Z,22.1
2017-07-27T03:04:00.937Z,22.2
2017-07-27T03:05:09.025Z,22.2
2017-07-27T03:06:17.114Z,22.2
2017-07-27T03:07:25.199Z,22.2
2017-07-27T03:08:33.288Z,22.1
2017-07-27T03:09:41.392Z,22.2
2017-07-27T03:10:49.474Z,22.2
2017-07-27T03:11:57.559Z,22.2
2017-07-27T03:13:05.649Z,22.2
2017-07-27T03:14:13.739Z,22.2
2017-07-27T03:15:21.823Z,22.2
2017-07-27T03:16:29.915Z,22.2
2017-07-27T03:17:38.003Z,22.2
2017-07-27T03:18:46.089Z,22.2
2017-07-27T03:19:54.189Z,22.2
2017-07-27T03:21:02.267Z,22.1
2017-07-27T03:22:10.353Z,22.1
2017-07-27T03:23:18.444Z,22.1
2017-07-27T03:24:26.528Z,22.2
2017-07-27T03:25:34.617Z,22.1
2017-07-27T03:26:42.706Z,22.0
2017-07-27T03:27:50.796Z,22.1
2017-07-27T03:28:58.882Z,22.1
2017-07-27T03:30:07.033Z,22.2
2017-07-27T03:31:15.063Z,22.1
2017-07-27T03:32:23.149Z,22.1
2017-07-27T03:33:31.236Z,22.1
2017-07-27T03:34:39.324Z,22.1
2017-07-27T03:35:47.412Z,22.1
2017-07-27T03:36:55.508Z,22.1
2017-07-27T03:38:03.588Z,22.0
2017-07-27T03:39:11.675Z,22.1
2017-07-27T03:40:19.790Z,22.0
2017-07-27T03:41:27.854Z,22.0
2017-07-27T03:42:35.941Z,22.0
2017-07-27T03:43:44.027Z,22.0
2017-07-27T03:44:52.115Z,22.0
2017-07-27T03:46:00.212Z,22.0
2017-07-27T03:47:08.299Z,22.0
2017-07-27T03:48:16.382Z,22.1
2017-07-27T03:49:24.471Z,22.1
2017-07-27T03:50:32.562Z,22.0
2017-07-27T03:51:40.651Z,21.9
2017-07-27T03:52:48.739Z,21.9
2017-07-27T03:53:56.824Z,22.0
2017-07-27T03:55:04.912Z,22.0
2017-07-27T03:56:12.999Z,22.0
2017-07-27T03:57:21.085Z,21.9
2017-07-27T03:58:29.175Z,21.9
2017-07-27T03:59:37.263Z,21.9
2017-07-27T04:00:45.353Z,21.9
2017-07-27T04:01:53.438Z,21.9
2017-07-27T04:03:01.526Z,21.9
2017-07-27T04:04:09.613Z,21.9
2017-07-27T04:05:17.699Z,22.0
2017-07-27T04:06:25.789Z,22.0
2017-07-27T04:07:33.878Z,21.9
2017-07-27T04:08:41.968Z,22.0
2017-07-27T04:09:50.052Z,21.9
2017-07-27T04:10:58.168Z,21.9
2017-07-27T04:12:06.229Z,21.9
2017-07-27T04:13:14.315Z,21.9
2017-07-27T04:14:22.406Z,21.9
2017-07-27T04:15:30.494Z,21.9
2017-07-27T04:16:38.583Z,21.9
2017-07-27T04:17:46.668Z,21.8
2017-07-27T04:18:54.756Z,21.8
2017-07-27T04:20:02.845Z,21.8
2017-07-27T04:21:10.963Z,21.8
2017-07-27T04:22:19.019Z,21.8
2017-07-27T04:23:27.106Z,21.8
2017-07-27T04:24:35.197Z,21.8
2017-07-27T04:25:43.285Z,21.8
2017-07-27T04:26:51.395Z,21.8
2017-07-27T04:27:59.528Z,21.8
2017-07-27T04:29:07.610Z,21.8
2017-07-27T04:30:15.714Z,21.8
2017-07-27T04:31:23.725Z,21.7
2017-07-27T04:32:31.812Z,21.8
2017-07-27T04:33:39.898Z,21.8
2017-07-27T04:34:47.985Z,21.8
2017-07-27T04:35:56.098Z,21.8
2017-07-27T04:37:04.160Z,21.7
2017-07-27T04:38:12.250Z,21.7
2017-07-27T04:39:20.344Z,21.7
2017-07-27T04:40:28.426Z,21.7
2017-07-27T04:41:36.514Z,21.8
2017-07-27T04:42:44.601Z,21.7
2017-07-27T04:43:52.690Z,21.7
2017-07-27T04:45:00.793Z,21.7
2017-07-27T04:46:09.990Z,21.7
2017-07-27T04:47:16.952Z,21.7
2017-07-27T04:48:25.047Z,21.7
2017-07-27T04:49:33.130Z,21.7
2017-07-27T04:50:41.217Z,21.7
2017-07-27T04:51:49.469Z,21.7
2017-07-27T04:52:57.774Z,21.7
2017-07-27T04:54:05.504Z,21.7
2017-07-27T04:55:13.569Z,21.6
2017-07-27T04:56:21.655Z,21.7
2017-07-27T04:57:29.744Z,21.7
2017-07-27T04:58:37.964Z,21.7
2017-07-27T04:59:45.968Z,21.7
2017-07-27T05:00:54.106Z,21.6
2017-07-27T05:02:02.170Z,21.7
2017-07-27T05:03:10.182Z,21.7
2017-07-27T05:04:18.273Z,21.6
2017-07-27T05:05:26.358Z,21.7
2017-07-27T05:06:34.448Z,21.7
2017-07-27T05:07:42.632Z,21.7
2017-07-27T05:08:50.628Z,21.7
2017-07-27T05:09:58.712Z,21.6
2017-07-27T05:11:07.143Z,21.5
2017-07-27T05:12:14.885Z,21.6
2017-07-27T05:13:22.974Z,21.6
2017-07-27T05:14:31.060Z,21.6
2017-07-27T05:15:39.148Z,21.6
2017-07-27T05:16:47.237Z,21.6
2017-07-27T05:17:55.323Z,21.7
2017-07-27T05:19:03.421Z,21.6
2017-07-27T05:20:11.517Z,21.8
2017-07-27T05:21:19.617Z,21.6
2017-07-27T05:22:27.706Z,21.6
2017-07-27T05:23:35.791Z,21.7
2017-07-27T05:24:43.877Z,21.6
2017-07-27T05:25:51.965Z,21.6
2017-07-27T05:27:00.055Z,21.6
2017-07-27T05:28:08.140Z,21.6
2017-07-27T05:29:16.230Z,21.6
2017-07-27T05:30:24.316Z,21.6
2017-07-27T05:31:32.403Z,21.7
2017-07-27T05:32:40.493Z,21.6
2017-07-27T05:33:48.581Z,21.7
2017-07-27T05:34:56.674Z,21.6
2017-07-27T05:36:04.764Z,21.6
2017-07-27T05:37:12.851Z,21.6
2017-07-27T05:38:20.942Z,21.6
2017-07-27T05:39:29.026Z,21.6
2017-07-27T05:40:37.116Z,21.6
2017-07-27T05:41:45.203Z,21.6
2017-07-27T05:42:53.288Z,21.6
2017-07-27T05:44:01.373Z,21.5
2017-07-27T05:45:09.463Z,21.5
2017-07-27T05:46:17.551Z,21.6
2017-07-27T05:47:25.646Z,21.6
2017-07-27T05:48:33.735Z,21.5
2017-07-27T05:49:41.821Z,21.6
2017-07-27T05:50:49.908Z,21.5
2017-07-27T05:51:57.997Z,21.5
2017-07-27T05:53:06.082Z,21.5
2017-07-27T05:54:14.172Z,21.5
2017-07-27T05:55:22.259Z,21.5
2017-07-27T05:56:30.345Z,21.5
2017-07-27T05:57:38.435Z,21.5
2017-07-27T05:58:46.520Z,21.5
2017-07-27T05:59:54.609Z,21.5
2017-07-27T06:01:02.695Z,21.5
2017-07-27T06:02:10.782Z,21.5
2017-07-27T06:03:18.869Z,21.4
2017-07-27T06:04:26.959Z,21.4
2017-07-27T06:05:35.045Z,21.4
2017-07-27T06:06:43.135Z,21.5
2017-07-27T06:07:51.223Z,21.5
2017-07-27T06:08:59.311Z,21.5
2017-07-27T06:10:07.399Z,21.4
2017-07-27T06:11:15.485Z,21.4
2017-07-27T06:12:23.570Z,21.4
2017-07-27T06:13:31.659Z,21.5
2017-07-27T06:14:39.745Z,21.4
2017-07-27T06:15:47.836Z,21.4
2017-07-27T06:16:55.920Z,21.4
2017-07-27T06:18:04.009Z,21.4
2017-07-27T06:19:12.098Z,21.4
2017-07-27T06:20:20.187Z,21.4
2017-07-27T06:21:28.272Z,21.4
2017-07-27T06:22:36.362Z,21.4
2017-07-27T06:23:44.445Z,21.4
2017-07-27T06:24:52.534Z,21.4
2017-07-27T06:26:00.622Z,21.4
2017-07-27T06:27:08.712Z,21.4
2017-07-27T06:28:16.797Z,21.4
2017-07-27T06:29:24.885Z,21.4
2017-07-27T06:30:32.972Z,21.4
2017-07-27T06:31:41.060Z,21.4
2017-07-27T06:32:49.145Z,21.3
2017-07-27T06:33:57.237Z,21.4
2017-07-27T06:35:05.326Z,21.4
2017-07-27T06:36:13.418Z,21.3
2017-07-27T06:37:21.498Z,21.3
2017-07-27T06:38:29.588Z,21.3
2017-07-27T06:39:37.675Z,21.3
2017-07-27T06:40:45.762Z,21.4
2017-07-27T06:41:53.849Z,21.3
2017-07-27T06:43:01.934Z,21.4
2017-07-27T06:44:10.024Z,21.3
2017-07-27T06:45:18.112Z,21.3
2017-07-27T06:46:26.195Z,21.3
2017-07-27T06:47:34.290Z,21.4
2017-07-27T06:48:42.373Z,21.4
2017-07-27T06:49:50.462Z,21.4
2017-07-27T06:50:58.548Z,21.4
2017-07-27T06:52:06.634Z,21.3
2017-07-27T06:53:14.721Z,21.3
2017-07-27T06:54:22.810Z,21.3
2017-07-27T06:55:30.907Z,21.3
2017-07-27T06:56:38.986Z,21.4
2017-07-27T06:57:47.072Z,21.3
2017-07-27T06:58:55.159Z,21.3
2017-07-27T07:00:03.246Z,21.2
2017-07-27T07:01:11.337Z,21.2
2017-07-27T07:02:19.421Z,21.3
2017-07-27T07:03:27.517Z,21.3
2017-07-27T07:04:35.604Z,21.3
2017-07-27T07:05:43.693Z,21.3
2017-07-27T07:06:51.778Z,21.2
2017-07-27T07:07:59.868Z,21.3
2017-07-27T07:09:07.955Z,21.3
2017-07-27T07:10:16.041Z,21.3
2017-07-27T07:11:24.126Z,21.3
2017-07-27T07:12:32.216Z,21.2
2017-07-27T07:13:40.310Z,21.2
2017-07-27T07:14:48.397Z,21.2
2017-07-27T07:15:56.483Z,21.2
2017-07-27T07:17:04.581Z,21.2
2017-07-27T07:18:12.661Z,21.2
2017-07-27T07:19:20.747Z,21.2
2017-07-27T07:20:28.845Z,21.2
2017-07-27T07:21:36.936Z,21.3
2017-07-27T07:22:45.021Z,21.1
2017-07-27T07:23:53.111Z,21.2
2017-07-27T07:25:01.199Z,21.2
2017-07-27T07:26:09.284Z,21.2
2017-07-27T07:27:17.373Z,21.1
2017-07-27T07:28:25.462Z,21.2
2017-07-27T07:29:33.547Z,21.2
2017-07-27T07:30:41.637Z,21.2
2017-07-27T07:31:49.723Z,21.1
2017-07-27T07:32:57.810Z,21.1
2017-07-27T07:34:05.899Z,21.2
2017-07-27T07:35:13.985Z,21.2
2017-07-27T07:36:22.072Z,21.2
2017-07-27T07:37:30.159Z,21.2
2017-07-27T07:38:38.248Z,21.2
2017-07-27T07:39:46.335Z,21.2
2017-07-27T07:40:54.422Z,21.1
2017-07-27T07:42:02.513Z,21.1
2017-07-27T07:43:10.606Z,21.1
2017-07-27T07:44:18.688Z,21.1
2017-07-27T07:45:26.774Z,21.2
2017-07-27T07:46:34.866Z,21.2
2017-07-27T07:47:42.951Z,21.2
2017-07-27T07:48:51.041Z,21.2
2017-07-27T07:49:59.127Z,21.1
2017-07-27T07:51:07.215Z,21.1
2017-07-27T07:52:15.303Z,21.1
2017-07-27T07:53:23.392Z,21.0
2017-07-27T07:54:31.476Z,21.1
2017-07-27T07:55:39.563Z,21.1
2017-07-27T07:56:47.650Z,21.1
2017-07-27T07:57:55.741Z,21.1
2017-07-27T07:59:03.824Z,21.0
2017-07-27T08:00:11.937Z,21.1
2017-07-27T08:01:20.002Z,21.1
2017-07-27T08:02:28.089Z,21.1
2017-07-27T08:03:36.182Z,21.1
2017-07-27T08:04:44.271Z,21.1
2017-07-27T08:05:52.356Z,21.0
2017-07-27T08:07:00.443Z,21.1
2017-07-27T08:08:08.533Z,21.1
2017-07-27T08:09:16.619Z,21.0
2017-07-27T08:10:24.706Z,21.0
2017-07-27T08:11:32.807Z,21.0
2017-07-27T08:12:40.893Z,21.0
2017-07-27T08:13:48.984Z,21.0
2017-07-27T08:14:57.068Z,21.0
2017-07-27T08:16:05.155Z,21.0
2017-07-27T08:17:13.246Z,21.1
2017-07-27T08:18:21.332Z,21.0
2017-07-27T08:19:29.415Z,21.0
2017-07-27T08:20:37.504Z,21.0
2017-07-27T08:21:45.594Z,20.9
2017-07-27T08:22:53.680Z,21.0
2017-07-27T08:24:01.767Z,21.0
2017-07-27T08:25:09.866Z,20.9
2017-07-27T08:26:17.944Z,21.0
2017-07-27T08:27:26.033Z,21.1
2017-07-27T08:28:34.120Z,21.0
2017-07-27T08:29:42.208Z,21.0
2017-07-27T08:30:50.294Z,20.9
2017-07-27T08:31:58.382Z,21.0
2017-07-27T08:33:06.469Z,21.0
2017-07-27T08:34:14.555Z,21.0
2017-07-27T08:35:22.641Z,20.9
2017-07-27T08:36:30.728Z,21.0
2017-07-27T08:37:38.815Z,20.9
2017-07-27T08:38:46.902Z,20.9
2017-07-27T08:39:54.991Z,20.9
2017-07-27T08:41:03.075Z,20.9
2017-07-27T08:42:11.162Z,21.0
2017-07-27T08:43:19.250Z,20.9
2017-07-27T08:44:27.339Z,20.9
2017-07-27T08:45:35.425Z,20.9
2017-07-27T08:48:59.686Z,20.9
2017-07-27T08:50:07.774Z,20.9
2017-07-27T08:51:15.861Z,20.9
2017-07-27T08:52:23.946Z,20.9
2017-07-27T08:53:32.041Z,20.9
2017-07-27T08:54:40.124Z,20.9
2017-07-27T08:55:48.210Z,20.9
2017-07-27T08:56:56.295Z,20.9
2017-07-27T08:58:04.384Z,20.9
2017-07-27T08:59:12.475Z,20.9
2017-07-27T09:00:20.559Z,20.9
2017-07-27T09:01:28.644Z,20.9
2017-07-27T09:02:36.732Z,20.9
2017-07-27T09:03:44.826Z,20.9
2017-07-27T09:04:52.911Z,20.9
2017-07-27T09:06:00.998Z,20.9
2017-07-27T09:07:09.087Z,20.9
2017-07-27T09:08:17.173Z,20.8
2017-07-27T09:09:25.261Z,20.8
2017-07-27T09:10:33.353Z,20.8
2017-07-27T09:11:41.435Z,20.9
2017-07-27T09:12:49.523Z,20.9
2017-07-27T09:13:57.610Z,20.8
2017-07-27T09:15:05.700Z,20.9
2017-07-27T09:16:13.788Z,20.8
2017-07-27T09:17:21.874Z,20.8
2017-07-27T09:18:29.961Z,20.9
2017-07-27T09:19:38.049Z,20.8
2017-07-27T09:20:46.135Z,20.8
2017-07-27T09:21:54.223Z,20.9
2017-07-27T09:23:02.310Z,20.8
2017-07-27T09:24:10.395Z,20.9
2017-07-27T09:25:18.481Z,20.8
2017-07-27T09:26:26.568Z,20.9
2017-07-27T09:27:34.655Z,20.8
2017-07-27T09:28:42.797Z,20.8
2017-07-27T09:29:50.841Z,20.8
2017-07-27T09:30:58.928Z,20.8
2017-07-27T09:32:07.016Z,20.8
2017-07-27T09:33:15.101Z,20.8
2017-07-27T09:34:23.188Z,20.8
2017-07-27T09:35:31.274Z,20.8
2017-07-27T09:36:39.369Z,20.8
2017-07-27T09:37:47.448Z,20.8
2017-07-27T09:38:55.538Z,20.9
2017-07-27T09:40:03.622Z,20.8
2017-07-27T09:41:11.709Z,20.8
2017-07-27T09:42:19.795Z,20.8
2017-07-27T09:43:27.882Z,20.8
2017-07-27T09:44:35.969Z,20.8
2017-07-27T09:45:44.057Z,20.9
2017-07-27T09:46:52.141Z,20.7
2017-07-27T09:48:00.231Z,20.7
2017-07-27T09:49:08.325Z,20.8
2017-07-27T09:50:16.415Z,20.7
2017-07-27T09:51:24.504Z,20.8
2017-07-27T09:52:32.593Z,20.7
2017-07-27T09:53:40.678Z,20.8
2017-07-27T09:54:48.767Z,20.8
2017-07-27T09:55:56.853Z,20.8
2017-07-27T09:57:04.939Z,20.7
2017-07-27T09:58:13.025Z,20.7
2017-07-27T09:59:21.116Z,20.8
2017-07-27T10:00:29.212Z,20.7
2017-07-27T10:01:37.289Z,20.7
2017-07-27T10:02:45.374Z,20.7
2017-07-27T10:03:53.460Z,20.7
2017-07-27T10:05:01.549Z,20.8
2017-07-27T10:06:09.635Z,20.7
2017-07-27T10:07:17.722Z,20.7
2017-07-27T10:08:25.808Z,20.7
2017-07-27T10:09:33.894Z,20.8
2017-07-27T10:10:41.981Z,20.7
2017-07-27T10:11:50.070Z,20.7
2017-07-27T10:12:58.157Z,20.7
2017-07-27T10:14:06.272Z,20.7
2017-07-27T10:15:14.331Z,20.7
2017-07-27T10:16:22.469Z,20.7
2017-07-27T10:17:30.508Z,20.7
2017-07-27T10:18:38.593Z,20.7
2017-07-27T10:19:46.678Z,20.7
2017-07-27T10:20:54.766Z,20.7
2017-07-27T10:22:02.853Z,20.7
2017-07-27T10:23:10.940Z,20.7
2017-07-27T10:24:19.029Z,20.7
2017-07-27T10:25:27.115Z,20.7
2017-07-27T10:26:35.203Z,20.7
2017-07-27T10:27:43.291Z,20.7
2017-07-27T10:28:51.376Z,20.7
2017-07-27T10:29:59.463Z,20.7
2017-07-27T10:31:07.551Z,20.7
2017-07-27T10:32:15.637Z,20.7
2017-07-27T10:33:23.731Z,20.7
2017-07-27T10:34:31.813Z,20.7
2017-07-27T10:35:39.900Z,20.7
2017-07-27T10:36:47.988Z,20.7
2017-07-27T10:37:56.073Z,20.7
2017-07-27T10:39:04.162Z,20.7
2017-07-27T10:40:12.249Z,20.7
2017-07-27T10:41:20.337Z,20.7
2017-07-27T10:42:28.426Z,20.7
2017-07-27T10:43:36.514Z,20.7
2017-07-27T10:44:44.602Z,20.7
2017-07-27T10:45:52.686Z,20.7
2017-07-27T10:47:00.775Z,20.7
2017-07-27T10:48:08.860Z,20.8
2017-07-27T10:49:16.946Z,20.7
2017-07-27T10:50:25.119Z,20.7
2017-07-27T10:51:33.120Z,20.7
2017-07-27T10:52:41.210Z,20.7
2017-07-27T10:53:49.297Z,20.7
2017-07-27T10:54:57.389Z,20.7
2017-07-27T10:56:05.477Z,20.7
2017-07-27T10:57:13.563Z,20.7
2017-07-27T10:58:21.650Z,20.7
2017-07-27T10:59:29.737Z,20.6
2017-07-27T11:00:37.825Z,20.7
2017-07-27T11:01:45.912Z,20.7
2017-07-27T11:02:54.000Z,20.7
2017-07-27T11:04:02.085Z,20.7
2017-07-27T11:05:10.173Z,20.7
2017-07-27T11:06:18.262Z,20.7
2017-07-27T11:07:26.443Z,20.6
2017-07-27T11:08:34.436Z,20.6
2017-07-27T11:09:42.521Z,20.7
2017-07-27T11:10:50.609Z,20.7
2017-07-27T11:11:58.698Z,20.7
2017-07-27T11:13:06.785Z,20.7
2017-07-27T11:14:14.871Z,20.7
2017-07-27T11:15:22.960Z,20.7
2017-07-27T11:16:31.045Z,20.7
2017-07-27T11:17:39.133Z,20.7
2017-07-27T11:18:47.217Z,20.6
2017-07-27T11:19:55.304Z,20.6
2017-07-27T11:21:03.393Z,20.7
2017-07-27T11:22:11.481Z,20.6
2017-07-27T11:23:19.568Z,20.7
2017-07-27T11:24:27.688Z,20.7
2017-07-27T11:25:35.740Z,20.6
2017-07-27T11:26:43.827Z,20.7
2017-07-27T11:27:51.913Z,20.6
2017-07-27T11:29:00.002Z,20.6
2017-07-27T11:30:08.090Z,20.6
2017-07-27T11:31:16.175Z,20.7
2017-07-27T11:32:24.263Z,20.6
2017-07-27T11:33:32.351Z,20.7
2017-07-27T11:34:40.438Z,20.7
2017-07-27T11:35:48.525Z,20.6
2017-07-27T11:36:56.611Z,20.6
2017-07-27T11:38:04.698Z,20.7
2017-07-27T11:39:12.785Z,20.7
2017-07-27T11:40:20.875Z,20.6
2017-07-27T11:41:28.977Z,20.7
2017-07-27T11:42:37.044Z,20.6
2017-07-27T11:43:45.141Z,20.7
2017-07-27T11:44:53.225Z,20.7
2017-07-27T11:46:01.319Z,20.7
2017-07-27T11:47:09.408Z,20.7
2017-07-27T11:48:17.502Z,20.7
2017-07-27T11:49:25.584Z,20.7
2017-07-27T11:50:33.669Z,20.7
2017-07-27T11:51:41.757Z,20.7
2017-07-27T11:52:49.844Z,20.7
2017-07-27T11:53:57.931Z,20.7
2017-07-27T11:55:06.018Z,20.7
2017-07-27T11:56:14.106Z,20.7
2017-07-27T11:57:22.191Z,20.7
2017-07-27T11:58:30.344Z,20.7
2017-07-27T11:59:38.375Z,20.7
2017-07-27T12:00:46.460Z,20.7
2017-07-27T12:01:54.547Z,20.7
2017-07-27T12:03:02.632Z,20.7
2017-07-27T12:04:10.724Z,20.7
2017-07-27T12:05:18.811Z,20.7
2017-07-27T12:06:26.899Z,20.7
2017-07-27T12:07:34.986Z,20.7
2017-07-27T12:08:43.073Z,20.7
2017-07-27T12:09:51.159Z,20.7
2017-07-27T12:10:59.248Z,20.7
2017-07-27T12:12:07.332Z,20.7
2017-07-27T12:13:15.433Z,20.7
2017-07-27T12:14:23.524Z,20.7
2017-07-27T12:15:31.686Z,20.7
2017-07-27T12:16:39.695Z,20.6
2017-07-27T12:17:47.781Z,20.7
2017-07-27T12:18:55.874Z,20.7
2017-07-27T12:20:03.961Z,20.7
2017-07-27T12:21:12.070Z,20.7
2017-07-27T12:22:20.134Z,20.7
2017-07-27T12:23:28.230Z,20.7
2017-07-27T12:24:36.342Z,20.7
2017-07-27T12:25:44.405Z,20.7
2017-07-27T12:26:52.490Z,20.7
2017-07-27T12:28:00.577Z,20.7
2017-07-27T12:29:08.665Z,20.8
2017-07-27T12:30:16.755Z,20.8
2017-07-27T12:31:24.839Z,20.7
2017-07-27T12:32:32.952Z,20.8
2017-07-27T12:33:41.014Z,20.8
2017-07-27T12:34:49.101Z,20.7
2017-07-27T12:35:57.193Z,20.8
2017-07-27T12:37:05.288Z,20.8
2017-07-27T12:38:13.375Z,20.8
2017-07-27T12:39:21.462Z,20.8
2017-07-27T12:40:29.551Z,20.8
2017-07-27T12:41:37.638Z,20.7
2017-07-27T12:42:45.732Z,20.8
2017-07-27T12:43:53.811Z,20.8
2017-07-27T12:45:01.896Z,20.7
2017-07-27T12:46:09.990Z,20.8
2017-07-27T12:47:18.080Z,20.7
2017-07-27T12:48:26.168Z,20.8
2017-07-27T12:49:34.279Z,20.8
2017-07-27T12:50:42.343Z,20.7
2017-07-27T12:51:50.427Z,20.9
2017-07-27T12:52:58.516Z,20.8
2017-07-27T12:54:06.601Z,20.8
2017-07-27T12:55:14.690Z,20.7
2017-07-27T12:56:22.802Z,20.7
2017-07-27T12:57:30.867Z,20.7
2017-07-27T12:58:38.953Z,20.7
2017-07-27T12:59:47.039Z,20.8
2017-07-27T13:00:55.127Z,20.8
2017-07-27T13:02:03.214Z,20.8
2017-07-27T13:03:11.300Z,20.7
2017-07-27T13:04:19.387Z,20.9
2017-07-27T13:05:27.476Z,20.8
2017-07-27T13:06:35.630Z,20.7
2017-07-27T13:07:43.650Z,20.7
2017-07-27T13:08:51.738Z,20.7
2017-07-27T13:09:59.824Z,20.8
2017-07-27T13:11:07.913Z,20.7
2017-07-27T13:12:16.000Z,20.8
2017-07-27T13:13:24.085Z,20.8
2017-07-27T13:14:32.173Z,20.8
2017-07-27T13:15:40.259Z,20.8
2017-07-27T13:16:48.350Z,20.8
2017-07-27T13:17:56.437Z,20.7
2017-07-27T13:19:04.524Z,20.9
2017-07-27T13:20:12.633Z,20.8
2017-07-27T13:21:20.696Z,20.9
2017-07-27T13:22:28.783Z,20.8
2017-07-27T13:23:36.930Z,20.8
2017-07-27T13:24:44.959Z,20.8
2017-07-27T13:25:53.047Z,20.8
2017-07-27T13:27:01.136Z,20.7
2017-07-27T13:28:09.221Z,20.8
2017-07-27T13:29:17.309Z,20.8
2017-07-27T13:30:25.395Z,20.8
2017-07-27T13:31:33.481Z,20.8
2017-07-27T13:32:41.568Z,20.8
2017-07-27T13:33:49.658Z,20.7
2017-07-27T13:34:57.744Z,20.9
2017-07-27T13:36:05.839Z,20.7
2017-07-27T13:37:13.919Z,20.8
2017-07-27T13:38:22.004Z,20.7
2017-07-27T13:39:30.093Z,20.7
2017-07-27T13:40:38.272Z,20.8
2017-07-27T13:41:46.267Z,20.8
2017-07-27T13:42:54.353Z,20.8
2017-07-27T13:44:02.443Z,20.7
2017-07-27T13:45:10.532Z,20.8
2017-07-27T13:46:18.616Z,20.9
2017-07-27T13:47:26.703Z,20.8
2017-07-27T13:48:34.791Z,20.8
2017-07-27T13:49:42.878Z,20.7
2017-07-27T13:50:50.963Z,20.7
2017-07-27T13:51:59.054Z,20.8
2017-07-27T13:53:07.139Z,20.9
2017-07-27T13:54:15.226Z,20.8
2017-07-27T13:55:23.312Z,20.8
2017-07-27T13:56:31.399Z,20.9
2017-07-27T13:57:39.528Z,20.8
2017-07-27T13:58:47.579Z,20.7
2017-07-27T13:59:55.661Z,20.8
2017-07-27T14:01:03.747Z,20.7
2017-07-27T14:02:11.837Z,20.8
2017-07-27T14:03:19.921Z,20.8
2017-07-27T14:04:28.007Z,20.9
2017-07-27T14:05:36.099Z,20.7
2017-07-27T14:06:44.183Z,20.9
2017-07-27T14:07:52.271Z,20.8
2017-07-27T14:09:00.359Z,20.8
2017-07-27T14:10:08.445Z,20.8
2017-07-27T14:11:16.531Z,20.8
2017-07-27T14:12:24.619Z,20.8
2017-07-27T14:13:32.706Z,20.8
2017-07-27T14:14:40.891Z,20.8
2017-07-27T14:15:48.882Z,20.8
2017-07-27T14:16:56.968Z,20.8
2017-07-27T14:18:05.058Z,20.8
2017-07-27T14:19:13.150Z,20.8
2017-07-27T14:20:21.230Z,20.8
2017-07-27T14:21:29.317Z,20.8
2017-07-27T14:22:37.407Z,20.8
2017-07-27T14:23:45.495Z,20.8
2017-07-27T14:24:53.580Z,20.8
2017-07-27T14:26:01.669Z,20.8
2017-07-27T14:27:09.755Z,20.8
2017-07-27T14:28:17.840Z,20.9
2017-07-27T14:29:25.931Z,20.8
2017-07-27T14:30:34.024Z,20.8
2017-07-27T14:31:42.188Z,20.8
2017-07-27T14:32:50.201Z,20.8
2017-07-27T14:33:58.288Z,20.7
2017-07-27T14:35:06.374Z,20.8
2017-07-27T14:36:14.462Z,20.8
2017-07-27T14:37:22.546Z,20.8
2017-07-27T14:38:30.633Z,20.8
2017-07-27T14:39:38.720Z,20.8
2017-07-27T14:40:46.812Z,20.8
2017-07-27T14:41:54.902Z,20.9
2017-07-27T14:43:02.983Z,20.9
2017-07-27T14:44:11.071Z,20.8
2017-07-27T14:45:19.157Z,20.8
2017-07-27T14:46:27.252Z,20.8
2017-07-27T14:47:35.333Z,20.8
2017-07-27T14:48:43.476Z,20.8
2017-07-27T14:49:51.506Z,20.8
2017-07-27T14:50:59.593Z,20.8
2017-07-27T14:52:07.683Z,20.8
2017-07-27T14:53:15.768Z,20.8
2017-07-27T14:54:23.856Z,20.8
2017-07-27T14:55:31.943Z,20.8
2017-07-27T14:56:40.032Z,20.8
2017-07-27T14:57:48.119Z,20.8
2017-07-27T14:58:56.206Z,20.8
2017-07-27T15:00:04.293Z,20.8
2017-07-27T15:01:12.379Z,20.8
2017-07-27T15:02:20.469Z,20.8
2017-07-27T15:03:28.554Z,20.8
2017-07-27T15:04:36.642Z,20.8
2017-07-27T15:05:44.819Z,20.8
2017-07-27T15:06:52.816Z,20.8
2017-07-27T15:08:00.905Z,20.8